Time;durP1;ratioP1;P1;durP2;ratioP2;P2;SDS_P1;SDS_P2;PMS_P1;PMS_P2;Temp;Humidity;BMP_temperature;BMP_pressure;BME280_temperature;BME280_humidity;BME280_pressure;Samples;Min_cycle;Max_cycle;Signal;HPM_P1;HPM_P2
2022/09/09 00:02:23;;;;;;;;;;;;;;;19.30;82.91;98593.22;5073607;28;20390;-46
2022/09/09 00:05:00;;;;;;;;;;;;;;;19.56;81.63;98586.13;5073514;28;19916;-46
2022/09/09 00:07:47;;;;;;;;;;;;;;;19.68;81.09;98580.53;5073871;28;20298;-46
2022/09/09 00:10:22;;;;;;;;;;;;;;;19.56;79.98;98578.16;5055523;28;19966;-46
2022/09/09 00:12:51;;;;;;;;;;;;;;;19.35;79.62;98580.72;5055474;28;19963;-48
2022/09/09 00:15:23;;;;;;;;;;;;;;;19.24;80.17;98576.41;5055359;28;19920;-48
2022/09/09 00:18:05;;;;;;;;;;;;;;;19.19;80.42;98581.72;5055386;28;19975;-48
2022/09/09 00:20:43;;;;;;;;;;;;;;;19.01;80.13;98580.28;5073603;28;19921;-48
2022/09/09 00:23:19;;;;;;;;;;;;;;;18.87;80.44;98577.28;5055302;28;19923;-48
2022/09/09 00:26:04;;;;;;;;;;;;;;;18.73;80.41;98570.78;5054987;28;20090;-48
2022/09/09 00:28:32;;;;;;;;;;;;;;;18.65;80.75;98574.75;5073408;28;19927;-47
2022/09/09 00:31:16;;;;;;;;;;;;;;;18.54;80.60;98567.75;5055060;28;19921;-47
2022/09/09 00:33:43;;;;;;;;;;;;;;;18.41;80.54;98571.66;5055158;28;19921;-46
2022/09/09 00:36:17;;;;;;;;;;;;;;;18.56;81.60;98570.94;5055056;28;19921;-46
2022/09/09 00:38:51;;;;;;;;;;;;;;;18.96;81.87;98570.44;5072967;28;20025;-48
2022/09/09 00:41:21;;;;;;;;;;;;;;;19.24;81.53;98576.41;5073126;28;19916;-48
2022/09/09 00:44:13;;;;;;;;;;;;;;;19.45;81.02;98577.28;5054935;28;19916;-48
2022/09/09 00:46:50;;;;;;;;;;;;;;;19.48;80.82;98576.78;5068864;28;19971;-48
2022/09/09 00:49:19;;;;;;;;;;;;;;;19.89;80.81;98571.56;5072827;28;19917;-48
2022/09/09 00:51:47;;;;;;;;;;;;;;;20.09;79.47;98572.69;5054725;28;19922;-48
2022/09/09 00:54:25;;;;;;;;;;;;;;;19.99;79.05;98565.47;5072691;28;19916;-48
2022/09/09 00:57:09;;;;;;;;;;;;;;;19.87;79.11;98564.91;5072647;28;19916;-49
2022/09/09 00:59:49;;;;;;;;;;;;;;;19.61;77.48;98569.38;5054639;28;20301;-48
2022/09/09 01:02:28;;;;;;;;;;;;;;;19.23;77.51;98569.47;5072478;28;19917;-48
2022/09/09 01:04:54;;;;;;;;;;;;;;;19.16;77.35;98569.72;5072521;28;20007;-48
2022/09/09 01:07:20;;;;;;;;;;;;;;;19.15;77.34;98556.69;5054449;28;20372;-48
2022/09/09 01:09:51;;;;;;;;;;;;;;;18.84;76.56;98551.22;5054474;28;19923;-48
2022/09/09 01:12:25;;;;;;;;;;;;;;;18.65;77.66;98555.31;5072502;28;19917;-48
2022/09/09 01:15:11;;;;;;;;;;;;;;;18.70;77.86;98556.16;5072421;28;19959;-48
2022/09/09 01:17:43;;;;;;;;;;;;;;;18.87;77.67;98550.69;5072241;28;19917;-48
2022/09/09 01:20:08;;;;;;;;;;;;;;;18.63;76.87;98547.59;5072288;28;20356;-47
2022/09/09 01:22:35;;;;;;;;;;;;;;;18.47;77.94;98552.03;5072348;28;19917;-47
2022/09/09 01:25:03;;;;;;;;;;;;;;;18.70;78.51;98560.69;5072011;28;19924;-48
2022/09/09 01:27:28;;;;;;;;;;;;;;;19.06;78.53;98563.56;5054252;28;20015;-48
2022/09/09 01:29:54;;;;;;;;;;;;;;;19.44;77.93;98549.09;5072193;28;20008;-48
2022/09/09 01:32:38;;;;;;;;;;;;;;;19.56;77.27;98548.88;5072176;28;19960;-48
2022/09/09 01:35:06;;;;;;;;;;;;;;;19.42;76.58;98551.22;5072113;28;20011;-48
2022/09/09 01:37:31;;;;;;;;;;;;;;;19.14;76.53;98550.56;5072137;28;20271;-47
2022/09/09 01:39:57;;;;;;;;;;;;;;;18.71;76.29;98547.13;5054068;28;19917;-48
2022/09/09 01:42:22;;;;;;;;;;;;;;;18.36;76.58;98545.81;5072315;28;19960;-48
2022/09/09 01:44:47;;;;;;;;;;;;;;;18.26;77.36;98542.28;5054087;28;19924;-48
2022/09/09 01:47:14;;;;;;;;;;;;;;;18.35;77.59;98554.84;5071958;28;19966;-46
2022/09/09 01:49:40;;;;;;;;;;;;;;;18.36;77.38;98550.34;5053986;28;19967;-48
2022/09/09 01:52:06;;;;;;;;;;;;;;;18.13;76.80;98562.13;5071999;28;20456;-48
2022/09/09 01:54:33;;;;;;;;;;;;;;;18.03;77.31;98565.47;5071913;28;19970;-49
2022/09/09 01:57:17;;;;;;;;;;;;;;;18.17;78.25;98561.34;5053960;28;19920;-48
2022/09/09 01:59:53;;;;;;;;;;;;;;;18.69;78.07;98551.09;5075540;28;19920;-48
2022/09/09 02:02:21;;;;;;;;;;;;;;;18.72;76.89;98550.59;5076041;28;19968;-48
2022/09/09 02:04:48;;;;;;;;;;;;;;;18.47;76.96;98562.66;5075883;28;19921;-47
2022/09/09 02:07:23;;;;;;;;;;;;;;;18.70;78.36;98568.66;5075769;28;19916;-48
2022/09/09 02:09:51;;;;;;;;;;;;;;;19.16;77.97;98555.63;5057926;28;19917;-48
2022/09/09 02:12:19;;;;;;;;;;;;;;;19.43;77.08;98560.78;5075814;28;19917;-47
2022/09/09 02:14:49;;;;;;;;;;;;;;;19.61;76.80;98564.84;5075758;28;19923;-48
2022/09/09 02:17:18;;;;;;;;;;;;;;;19.82;76.47;98576.38;5057776;28;19916;-48
2022/09/09 02:19:46;;;;;;;;;;;;;;;19.83;75.41;98580.63;5075623;28;20020;-48
2022/09/09 02:22:11;;;;;;;;;;;;;;;19.83;75.57;98582.50;5057594;28;19916;-46
2022/09/09 02:24:40;;;;;;;;;;;;;;;20.09;75.16;98576.13;5075291;28;19939;-48
2022/09/09 02:27:08;;;;;;;;;;;;;;;20.10;73.91;98574.25;5075468;28;19916;-48
2022/09/09 02:29:36;;;;;;;;;;;;;;;19.82;74.24;98576.38;5075652;28;20015;-48
2022/09/09 02:32:07;;;;;;;;;;;;;;;19.74;74.66;98580.34;5057387;28;19923;-48
2022/09/09 02:34:36;;;;;;;;;;;;;;;19.63;72.95;98570.69;5075279;28;20390;-48
2022/09/09 02:37:03;;;;;;;;;;;;;;;19.05;72.86;98568.06;5075270;28;19959;-48
2022/09/09 02:39:29;;;;;;;;;;;;;;;18.68;73.98;98568.09;5075322;28;19920;-48
2022/09/09 02:41:54;;;;;;;;;;;;;;;18.52;74.73;98559.22;5057248;28;19966;-48
2022/09/09 02:44:20;;;;;;;;;;;;;;;18.71;75.95;98568.41;5057192;28;20012;-48
2022/09/09 02:47:04;;;;;;;;;;;;;;;19.15;75.22;98573.44;5075054;28;19970;-48
2022/09/09 02:49:41;;;;;;;;;;;;;;;19.14;74.44;98573.72;5075090;28;20493;-49
2022/09/09 02:52:08;;;;;;;;;;;;;;;19.00;74.86;98575.25;5075065;28;19916;-48
2022/09/09 02:54:36;;;;;;;;;;;;;;;18.90;74.77;98582.09;5074987;28;19921;-48
2022/09/09 02:57:12;;;;;;;;;;;;;;;19.00;75.18;98585.88;5074903;28;19926;-48
2022/09/09 02:59:38;;;;;;;;;;;;;;;19.30;74.17;98590.56;5074922;28;19917;-49
2022/09/09 03:02:04;;;;;;;;;;;;;;;19.52;73.16;98587.72;5074907;28;19966;-49
2022/09/09 03:04:30;;;;;;;;;;;;;;;19.55;72.30;98582.66;5074874;28;20402;-48
2022/09/09 03:06:57;;;;;;;;;;;;;;;19.46;71.96;98583.44;5074688;28;19924;-48
2022/09/09 03:09:22;;;;;;;;;;;;;;;19.33;71.03;98585.50;5074443;28;19920;-48
2022/09/09 03:11:49;;;;;;;;;;;;;;;19.07;70.53;98586.44;5074235;28;20354;-49
2022/09/09 03:14:15;;;;;;;;;;;;;;;18.91;71.76;98581.06;5074696;28;20271;-48
2022/09/09 03:16:42;;;;;;;;;;;;;;;18.83;72.05;98586.03;5074527;28;19974;-47
2022/09/09 03:19:11;;;;;;;;;;;;;;;18.84;72.68;98582.34;5074569;28;20294;-47
2022/09/09 03:21:36;;;;;;;;;;;;;;;19.04;72.03;98589.63;5056525;28;19916;-48
2022/09/09 03:24:03;;;;;;;;;;;;;;;19.02;69.99;98589.09;5056460;28;20302;-47
2022/09/09 03:26:28;;;;;;;;;;;;;;;18.83;69.16;98586.03;5074044;28;19931;-48
2022/09/09 03:28:54;;;;;;;;;;;;;;;18.77;70.10;98588.66;5056410;28;19916;-48
2022/09/09 03:31:19;;;;;;;;;;;;;;;18.98;70.28;98601.28;5074295;28;20015;-48
2022/09/09 03:33:45;;;;;;;;;;;;;;;19.18;69.58;98598.75;5074273;28;19921;-48
2022/09/09 03:36:10;;;;;;;;;;;;;;;19.30;69.31;98598.53;5074224;28;19916;-48
2022/09/09 03:38:36;;;;;;;;;;;;;;;19.16;68.95;98596.34;5056163;28;19916;-47
2022/09/09 03:41:01;;;;;;;;;;;;;;;19.12;69.42;98602.44;5074158;28;19959;-47
2022/09/09 03:43:27;;;;;;;;;;;;;;;19.36;69.27;98595.63;5074341;28;19923;-49
2022/09/09 03:45:56;;;;;;;;;;;;;;;19.50;68.57;98593.28;5073984;28;20486;-48
2022/09/09 03:48:22;;;;;;;;;;;;;;;19.64;68.45;98595.44;5073961;28;19920;-48
2022/09/09 03:50:49;;;;;;;;;;;;;;;19.64;67.48;98585.63;5073916;28;19922;-48
2022/09/09 03:53:15;;;;;;;;;;;;;;;19.16;67.17;98584.91;5073850;28;19917;-48
2022/09/09 03:55:49;;;;;;;;;;;;;;;18.69;67.72;98583.81;5055848;28;19982;-48
2022/09/09 03:58:16;;;;;;;;;;;;;;;18.23;68.27;98587.94;5073787;28;19959;-47
2022/09/09 04:00:42;;;;;;;;;;;;;;;17.99;68.92;98590.94;5073697;28;19962;-47
2022/09/09 04:03:11;;;;;;;;;;;;;;;17.74;69.49;98596.75;5073651;28;20416;-48
2022/09/09 04:05:39;;;;;;;;;;;;;;;17.30;70.31;98594.91;5073484;28;19917;-48
2022/09/09 04:08:08;;;;;;;;;;;;;;;17.00;71.23;98594.50;5073544;28;20301;-51
2022/09/09 04:10:33;;;;;;;;;;;;;;;16.82;71.92;98599.06;5073496;28;19951;-50
2022/09/09 04:12:59;;;;;;;;;;;;;;;16.53;72.60;98595.66;5073522;28;19966;-51
2022/09/09 04:15:25;;;;;;;;;;;;;;;16.40;72.75;98599.44;5073482;28;19962;-50
2022/09/09 04:17:53;;;;;;;;;;;;;;;16.55;72.72;98594.34;5055582;28;19987;-51
2022/09/09 04:20:19;;;;;;;;;;;;;;;16.62;72.45;98590.75;5055394;28;20010;-50
2022/09/09 04:22:44;;;;;;;;;;;;;;;16.65;72.58;98592.91;5073264;28;19959;-51
2022/09/09 04:25:10;;;;;;;;;;;;;;;16.78;72.58;98593.41;5055081;28;19928;-50
2022/09/09 04:27:35;;;;;;;;;;;;;;;17.08;72.31;98586.13;5055243;28;19974;-50
2022/09/09 04:30:01;;;;;;;;;;;;;;;17.29;72.04;98587.22;5055185;28;19923;-50
2022/09/09 04:32:27;;;;;;;;;;;;;;;17.46;71.43;98579.97;5073157;28;20386;-50
2022/09/09 04:34:52;;;;;;;;;;;;;;;17.34;71.07;98585.44;5073093;28;20054;-50
2022/09/09 04:37:18;;;;;;;;;;;;;;;17.05;70.99;98590.06;5072977;28;19958;-50
2022/09/09 04:39:43;;;;;;;;;;;;;;;16.78;71.68;98595.22;5072944;28;19923;-51
2022/09/09 04:42:08;;;;;;;;;;;;;;;16.62;72.02;98593.38;5072930;28;20441;-50
2022/09/09 04:44:34;;;;;;;;;;;;;;;16.60;72.66;98596.31;5054876;28;19917;-51
2022/09/09 04:46:59;;;;;;;;;;;;;;;16.61;72.22;98602.41;5054791;28;19928;-51
2022/09/09 04:49:25;;;;;;;;;;;;;;;16.45;72.58;98602.16;5054852;28;20279;-49
2022/09/09 04:51:51;;;;;;;;;;;;;;;16.31;73.71;98606.94;5072934;28;19985;-50
2022/09/09 04:54:17;;;;;;;;;;;;;;;16.25;73.31;98607.91;5072686;28;19952;-50
2022/09/09 04:56:43;;;;;;;;;;;;;;;16.41;73.30;98616.91;5072606;28;19920;-51
2022/09/09 04:59:09;;;;;;;;;;;;;;;16.75;73.71;98617.72;5072683;28;19924;-50
2022/09/09 05:01:35;;;;;;;;;;;;;;;16.92;73.20;98611.63;5072603;28;19982;-51
2022/09/09 05:04:02;;;;;;;;;;;;;;;16.78;72.67;98616.41;5072596;28;19986;-51
2022/09/09 05:06:28;;;;;;;;;;;;;;;16.74;72.67;98620.59;5072414;28;19917;-50
2022/09/09 05:08:54;;;;;;;;;;;;;;;16.92;72.88;98623.06;5072739;28;20002;-49
2022/09/09 05:11:24;;;;;;;;;;;;;;;17.07;72.06;98619.00;5054489;28;20409;-50
2022/09/09 05:13:50;;;;;;;;;;;;;;;17.15;72.07;98614.06;5072338;28;19916;-51
2022/09/09 05:16:16;;;;;;;;;;;;;;;17.43;72.26;98628.22;5072365;28;19917;-51
2022/09/09 05:18:43;;;;;;;;;;;;;;;17.66;71.00;98634.34;5072388;28;19917;-50
2022/09/09 05:21:09;;;;;;;;;;;;;;;17.83;71.24;98636.91;5072334;28;19916;-51
2022/09/09 05:23:35;;;;;;;;;;;;;;;18.02;70.54;98630.25;5072275;28;19960;-50
2022/09/09 05:26:01;;;;;;;;;;;;;;;18.14;70.15;98628.25;5072000;28;19963;-49
2022/09/09 05:28:26;;;;;;;;;;;;;;;18.10;70.02;98635.13;5054209;28;19917;-48
2022/09/09 05:31:00;;;;;;;;;;;;;;;18.32;69.83;98636.91;5072169;28;19966;-49
2022/09/09 05:33:28;;;;;;;;;;;;;;;18.47;69.63;98642.38;5071820;28;19916;-49
2022/09/09 05:36:13;;;;;;;;;;;;;;;18.80;68.79;98635.22;5072140;28;19916;-50
2022/09/09 05:38:40;;;;;;;;;;;;;;;18.79;68.13;98643.41;5054219;28;19916;-50
2022/09/09 05:41:06;;;;;;;;;;;;;;;18.82;68.27;98649.06;5072158;28;19920;-48
2022/09/09 05:43:32;;;;;;;;;;;;;;;18.87;67.97;98654.41;5072097;28;19974;-49
2022/09/09 05:46:03;;;;;;;;;;;;;;;18.88;67.49;98653.34;5071913;28;19917;-49
2022/09/09 05:48:30;;;;;;;;;;;;;;;18.77;67.42;98651.63;5072074;28;19966;-48
2022/09/09 05:50:56;;;;;;;;;;;;;;;18.65;67.05;98656.31;5071946;28;20015;-51
2022/09/09 05:53:26;;;;;;;;;;;;;;;18.53;67.16;98661.81;5071984;28;20010;-48
2022/09/09 05:56:18;;;;;;;;;;;;;;;18.47;66.86;98668.13;5053996;28;19917;-48
2022/09/09 05:58:44;;;;;;;;;;;;;;;18.44;66.98;98668.66;5068810;28;19917;-49
2022/09/09 06:01:18;;;;;;;;;;;;;;;18.81;66.78;98676.69;5053959;28;19924;-49
2022/09/09 06:03:44;;;;;;;;;;;;;;;19.21;66.02;98675.38;5071870;28;19962;-49
2022/09/09 06:06:14;;;;;;;;;;;;;;;19.49;65.19;98679.50;5071801;28;19921;-50
2022/09/09 06:08:41;;;;;;;;;;;;;;;20.95;63.68;98678.56;5053847;28;20345;-50
2022/09/09 06:11:14;;;;;;;;;;;;;;;22.36;59.79;98661.78;5071815;28;20402;-48
2022/09/09 06:13:40;;;;;;;;;;;;;;;23.49;56.84;98667.72;5071837;28;19924;-48
2022/09/09 06:16:13;;;;;;;;;;;;;;;23.99;55.01;98664.72;5071719;28;20363;-48
2022/09/09 06:18:39;;;;;;;;;;;;;;;24.05;55.12;98670.81;5071774;28;20453;-48
2022/09/09 06:21:06;;;;;;;;;;;;;;;24.16;55.39;98668.78;5071799;28;20294;-47
2022/09/09 06:23:34;;;;;;;;;;;;;;;24.33;54.83;98669.84;5071987;28;20302;-48
2022/09/09 06:26:05;;;;;;;;;;;;;;;24.79;54.18;98671.06;5071381;28;19935;-48
2022/09/09 06:28:31;;;;;;;;;;;;;;;25.23;52.76;98675.16;5053827;28;19924;-47
2022/09/09 06:31:00;;;;;;;;;;;;;;;24.79;51.12;98668.38;5053567;28;19917;-46
2022/09/09 06:33:27;;;;;;;;;;;;;;;25.03;52.08;98670.91;5071684;28;19923;-49
2022/09/09 06:35:53;;;;;;;;;;;;;;;25.22;51.17;98670.84;5071543;28;19918;-48
2022/09/09 06:38:19;;;;;;;;;;;;;;;24.63;51.81;98675.06;5071548;28;20322;-48
2022/09/09 06:40:51;;;;;;;;;;;;;;;24.07;52.85;98682.84;5053476;28;19967;-47
2022/09/09 06:43:19;;;;;;;;;;;;;;;25.56;50.78;98672.34;5053712;28;19916;-47
2022/09/09 06:45:52;;;;;;;;;;;;;;;26.92;47.87;98676.06;5072982;28;19924;-49
2022/09/09 06:48:17;;;;;;;;;;;;;;;28.32;46.25;98673.81;5057177;28;20305;-48
2022/09/09 06:50:43;;;;;;;;;;;;;;;29.45;42.58;98662.75;5075043;28;19916;-48
2022/09/09 06:53:08;;;;;;;;;;;;;;;29.98;41.92;98680.28;5075024;28;20377;-48
2022/09/09 06:55:37;;;;;;;;;;;;;;;30.92;39.58;98675.50;5074913;28;19970;-48
2022/09/09 06:58:07;;;;;;;;;;;;;;;31.97;38.67;98674.97;5074964;28;19920;-47
2022/09/09 07:00:33;;;;;;;;;;;;;;;32.82;36.43;98667.63;5074782;28;19924;-48
2022/09/09 07:02:58;;;;;;;;;;;;;;;33.15;36.24;98672.00;5057020;28;19965;-48
2022/09/09 07:05:25;;;;;;;;;;;;;;;33.57;34.53;98669.50;5074762;28;19952;-47
2022/09/09 07:07:51;;;;;;;;;;;;;;;33.92;33.50;98674.16;5074567;28;19959;-50
2022/09/09 07:10:17;;;;;;;;;;;;;;;34.24;33.06;98673.28;5074769;28;19944;-49
2022/09/09 07:12:42;;;;;;;;;;;;;;;34.63;32.60;98668.56;5074686;28;19924;-50
2022/09/09 07:15:08;;;;;;;;;;;;;;;35.12;31.60;98675.31;5074628;28;19973;-49
2022/09/09 07:17:34;;;;;;;;;;;;;;;35.41;30.84;98679.28;5074655;28;20386;-50
2022/09/09 07:19:59;;;;;;;;;;;;;;;35.39;29.13;98674.19;5056614;28;19928;-47
2022/09/09 07:22:25;;;;;;;;;;;;;;;34.47;28.46;98681.50;5074399;28;19916;-48
2022/09/09 07:24:50;;;;;;;;;;;;;;;33.63;29.88;98684.44;5074156;28;19924;-47
2022/09/09 07:27:15;;;;;;;;;;;;;;;33.87;29.86;98685.34;5056358;28;19916;-48
2022/09/09 07:29:41;;;;;;;;;;;;;;;34.14;29.84;98683.59;5074398;28;19916;-50
2022/09/09 07:32:06;;;;;;;;;;;;;;;34.45;29.55;98683.81;5074290;28;19969;-49
2022/09/09 07:34:35;;;;;;;;;;;;;;;34.66;27.65;98676.06;5074278;28;19927;-48
2022/09/09 07:37:00;;;;;;;;;;;;;;;34.24;28.63;98679.53;5074276;28;19959;-49
2022/09/09 07:39:26;;;;;;;;;;;;;;;34.90;28.78;98679.63;5074144;28;19975;-49
2022/09/09 07:41:51;;;;;;;;;;;;;;;35.67;27.59;98669.56;5056108;28;19923;-49
2022/09/09 07:44:18;;;;;;;;;;;;;;;36.04;27.08;98669.69;5056151;28;19916;-49
2022/09/09 07:46:45;;;;;;;;;;;;;;;36.27;26.60;98668.78;5074189;28;19916;-48
2022/09/09 07:49:10;;;;;;;;;;;;;;;36.40;26.63;98681.03;5073977;28;19924;-49
2022/09/09 07:51:38;;;;;;;;;;;;;;;36.79;26.56;98678.75;5073950;28;19970;-49
2022/09/09 07:54:05;;;;;;;;;;;;;;;37.58;26.10;98686.81;5073974;28;19916;-49
2022/09/09 07:56:31;;;;;;;;;;;;;;;37.93;25.29;98683.53;5055501;28;20365;-48
2022/09/09 07:58:58;;;;;;;;;;;;;;;38.47;25.18;98688.44;5055908;28;19955;-48
2022/09/09 08:01:32;;;;;;;;;;;;;;;38.99;24.81;98691.72;5073735;28;19916;-48
2022/09/09 08:04:01;;;;;;;;;;;;;;;39.31;23.90;98696.41;5073782;28;20313;-49
2022/09/09 08:06:28;;;;;;;;;;;;;;;39.05;23.67;98694.84;5055644;28;19916;-50
2022/09/09 08:08:54;;;;;;;;;;;;;;;39.00;23.82;98703.47;5073718;28;20389;-49
2022/09/09 08:11:20;;;;;;;;;;;;;;;39.15;24.05;98705.81;5073607;28;20340;-50
2022/09/09 08:13:46;;;;;;;;;;;;;;;39.43;23.68;98704.28;5073550;28;19916;-48
2022/09/09 08:16:13;;;;;;;;;;;;;;;39.85;22.64;98697.13;5055487;28;19917;-49
2022/09/09 08:18:39;;;;;;;;;;;;;;;39.98;22.72;98702.22;5073453;28;20398;-50
2022/09/09 08:21:05;;;;;;;;;;;;;;;40.37;20.94;98699.34;5073251;28;19924;-48
2022/09/09 08:23:31;;;;;;;;;;;;;;;40.54;21.31;98703.94;5055346;28;19917;-51
2022/09/09 08:26:03;;;;;;;;;;;;;;;40.47;21.05;98700.47;5072997;28;19971;-51
2022/09/09 08:28:29;;;;;;;;;;;;;;;40.44;21.17;98702.03;5073241;28;19916;-51
2022/09/09 08:30:54;;;;;;;;;;;;;;;40.39;20.77;98704.41;5073070;28;20340;-52
2022/09/09 08:33:20;;;;;;;;;;;;;;;40.56;20.86;98702.75;5055184;28;19927;-51
2022/09/09 08:35:52;;;;;;;;;;;;;;;40.86;20.62;98704.97;5073035;28;19920;-52
2022/09/09 08:38:18;;;;;;;;;;;;;;;41.45;20.32;98704.84;5073232;28;19963;-52
2022/09/09 08:40:47;;;;;;;;;;;;;;;41.50;19.38;98701.69;5072927;28;19956;-52
2022/09/09 08:43:17;;;;;;;;;;;;;;;41.08;19.79;98706.34;5072877;28;20016;-50
2022/09/09 08:45:55;;;;;;;;;;;;;;;38.56;20.98;98708.09;5073025;28;19920;-53
2022/09/09 08:48:41;;;;;;;;;;;;;;;36.49;22.24;98714.34;5072846;28;19924;-49
2022/09/09 08:51:07;;;;;;;;;;;;;;;36.48;22.75;98714.72;5072862;28;19943;-50
2022/09/09 08:53:38;;;;;;;;;;;;;;;37.70;22.74;98718.63;5072718;28;19917;-49
2022/09/09 08:56:09;;;;;;;;;;;;;;;37.85;21.22;98711.25;5073317;28;19916;-49
2022/09/09 08:58:38;;;;;;;;;;;;;;;38.49;20.71;98711.56;5054813;28;19924;-47
2022/09/09 09:01:10;;;;;;;;;;;;;;;39.38;19.21;98714.84;5072606;28;19916;-49
2022/09/09 09:03:57;;;;;;;;;;;;;;;39.64;18.97;98711.69;5072531;28;20389;-48
2022/09/09 09:06:22;;;;;;;;;;;;;;;37.96;19.52;98721.09;5072513;28;19923;-50
2022/09/09 09:08:56;;;;;;;;;;;;;;;37.73;19.18;98720.56;5071813;28;20298;-49
2022/09/09 09:11:22;;;;;;;;;;;;;;;36.59;19.66;98705.47;5072516;28;19917;-49
2022/09/09 09:13:48;;;;;;;;;;;;;;;34.65;21.35;98718.09;5054431;28;20370;-49
2022/09/09 09:16:22;;;;;;;;;;;;;;;33.26;22.88;98718.50;5054437;28;19927;-48
2022/09/09 09:18:47;;;;;;;;;;;;;;;32.18;23.80;98719.06;5054476;28;19921;-50
2022/09/09 09:21:20;;;;;;;;;;;;;;;31.67;24.61;98715.16;5072286;28;20390;-50
2022/09/09 09:23:53;;;;;;;;;;;;;;;31.57;24.73;98719.91;5072489;28;20302;-49
2022/09/09 09:26:19;;;;;;;;;;;;;;;32.45;24.10;98725.66;5054007;28;20019;-47
2022/09/09 09:28:48;;;;;;;;;;;;;;;34.23;23.15;98713.38;5071515;28;21390;-49
2022/09/09 09:31:14;;;;;;;;;;;;;;;35.94;21.67;98709.34;5072229;28;19974;-50
2022/09/09 09:33:50;;;;;;;;;;;;;;;37.26;20.76;98713.97;5054294;28;19920;-50
2022/09/09 09:36:15;;;;;;;;;;;;;;;37.21;20.75;98703.34;5054158;28;19966;-49
2022/09/09 09:38:52;;;;;;;;;;;;;;;37.20;20.47;98704.53;5072147;28;19916;-47
2022/09/09 09:41:28;;;;;;;;;;;;;;;35.75;21.04;98707.50;5072134;28;19916;-49
2022/09/09 09:43:54;;;;;;;;;;;;;;;34.36;21.76;98711.28;5072390;28;19993;-48
2022/09/09 09:46:23;;;;;;;;;;;;;;;32.99;23.03;98712.75;5071983;28;20405;-49
2022/09/09 09:49:05;;;;;;;;;;;;;;;32.07;23.69;98712.50;5072048;28;20443;-49
2022/09/09 09:51:32;;;;;;;;;;;;;;;31.64;24.45;98711.97;5072034;28;19927;-50
2022/09/09 09:54:09;;;;;;;;;;;;;;;33.29;23.84;98717.81;5072356;28;19983;-50
2022/09/09 09:56:35;;;;;;;;;;;;;;;35.42;21.07;98705.44;5071899;28;20333;-50
2022/09/09 09:59:00;;;;;;;;;;;;;;;36.86;20.05;98705.38;5071938;28;19928;-48
2022/09/09 10:01:28;;;;;;;;;;;;;;;37.70;18.90;98710.41;5072003;28;19916;-47
2022/09/09 10:03:56;;;;;;;;;;;;;;;37.99;18.93;98700.38;5072260;28;19916;-50
2022/09/09 10:06:32;;;;;;;;;;;;;;;39.31;18.58;98699.16;5071786;28;20398;-50
2022/09/09 10:08:59;;;;;;;;;;;;;;;40.50;17.44;98703.19;5071784;28;19981;-49
2022/09/09 10:11:25;;;;;;;;;;;;;;;40.92;16.66;98692.31;5053891;28;20302;-50
2022/09/09 10:14:10;;;;;;;;;;;;;;;41.85;16.85;98691.47;5053876;28;20378;-49
2022/09/09 10:16:44;;;;;;;;;;;;;;;41.11;16.54;98688.22;5053810;28;19970;-52
2022/09/09 10:19:14;;;;;;;;;;;;;;;40.51;16.03;98684.72;5072807;28;19920;-52
2022/09/09 10:21:48;;;;;;;;;;;;;;;39.85;16.07;98680.63;5075635;28;20441;-51
2022/09/09 10:24:37;;;;;;;;;;;;;;;39.75;16.35;98686.94;5057629;28;20392;-51
2022/09/09 10:27:16;;;;;;;;;;;;;;;40.54;16.09;98681.16;5075488;28;20413;-53
2022/09/09 10:29:52;;;;;;;;;;;;;;;41.12;15.54;98690.59;5075548;28;19916;-52
2022/09/09 10:32:29;;;;;;;;;;;;;;;41.71;15.26;98686.13;5075528;28;20386;-52
2022/09/09 10:34:55;;;;;;;;;;;;;;;42.07;15.10;98677.47;5075413;28;20394;-53
2022/09/09 10:37:52;;;;;;;;;;;;;;;40.92;14.94;98682.09;5057354;28;19972;-51
2022/09/09 10:40:38;;;;;;;;;;;;;;;40.13;15.00;98682.53;5023809;28;20409;-51
2022/09/09 10:43:09;;;;;;;;;;;;;;;39.53;15.77;98692.50;5075257;28;19922;-53
2022/09/09 10:45:48;;;;;;;;;;;;;;;39.20;16.36;98688.19;5075182;28;19917;-52
2022/09/09 10:48:16;;;;;;;;;;;;;;;38.73;16.39;98687.34;5075147;28;19920;-51
2022/09/09 10:51:11;;;;;;;;;;;;;;;39.55;16.29;98683.84;5075083;28;19921;-51
2022/09/09 10:53:39;;;;;;;;;;;;;;;40.16;15.84;98675.44;5043912;28;19952;-52
2022/09/09 10:56:10;;;;;;;;;;;;;;;40.30;15.50;98675.38;5074989;28;19978;-53
2022/09/09 10:58:46;;;;;;;;;;;;;;;40.08;15.69;98680.19;5074836;28;19917;-52
2022/09/09 11:01:15;;;;;;;;;;;;;;;39.53;15.86;98683.47;5074902;28;19917;-50
2022/09/09 11:03:42;;;;;;;;;;;;;;;38.45;16.80;98680.59;5056897;28;19967;-51
2022/09/09 11:06:17;;;;;;;;;;;;;;;38.71;16.81;98682.25;5056791;28;19924;-51
2022/09/09 11:08:42;;;;;;;;;;;;;;;39.32;16.19;98681.50;5056856;28;20345;-53
2022/09/09 11:11:18;;;;;;;;;;;;;;;39.83;16.42;98676.72;5074738;28;19916;-52
2022/09/09 11:13:55;;;;;;;;;;;;;;;40.23;15.66;98674.63;5056745;28;19920;-52
2022/09/09 11:16:28;;;;;;;;;;;;;;;39.32;15.87;98673.25;5074959;28;19916;-52
2022/09/09 11:19:02;;;;;;;;;;;;;;;39.00;16.15;98678.75;5074596;28;19959;-52
2022/09/09 11:21:41;;;;;;;;;;;;;;;38.82;16.61;98679.53;5074560;28;20003;-51
2022/09/09 11:24:13;;;;;;;;;;;;;;;38.90;16.56;98675.63;5074548;28;19924;-52
2022/09/09 11:26:45;;;;;;;;;;;;;;;39.65;16.00;98672.06;5074266;28;19928;-51
2022/09/09 11:29:22;;;;;;;;;;;;;;;40.28;15.74;98671.44;5074444;28;19974;-52
2022/09/09 11:32:01;;;;;;;;;;;;;;;40.38;15.37;98672.59;5073995;28;19917;-52
2022/09/09 11:34:42;;;;;;;;;;;;;;;40.46;14.96;98674.91;5074327;28;19916;-50
2022/09/09 11:37:26;;;;;;;;;;;;;;;41.12;14.74;98678.78;5074290;28;19966;-52
2022/09/09 11:39:54;;;;;;;;;;;;;;;41.40;13.56;98672.25;5074198;28;19916;-53
2022/09/09 11:42:22;;;;;;;;;;;;;;;40.78;13.95;98673.16;5056143;28;19916;-52
2022/09/09 11:44:47;;;;;;;;;;;;;;;40.88;13.79;98664.03;5056159;28;20369;-52
2022/09/09 11:47:20;;;;;;;;;;;;;;;40.28;13.39;98671.44;5073926;28;19956;-51
2022/09/09 11:49:45;;;;;;;;;;;;;;;39.57;14.03;98672.47;5074069;28;19916;-50
2022/09/09 11:52:31;;;;;;;;;;;;;;;40.11;14.52;98670.38;5073979;28;19916;-52
2022/09/09 11:54:57;;;;;;;;;;;;;;;40.88;13.85;98670.31;5045445;28;19962;-52
2022/09/09 11:57:28;;;;;;;;;;;;;;;39.97;13.95;98673.19;5073844;28;19920;-52
2022/09/09 11:59:54;;;;;;;;;;;;;;;39.49;14.75;98667.00;5073838;28;19995;-52
2022/09/09 12:02:25;;;;;;;;;;;;;;;39.09;14.63;98665.44;5073956;28;19943;-53
2022/09/09 12:04:56;;;;;;;;;;;;;;;37.75;15.39;98679.88;5073730;28;19939;-53
2022/09/09 12:07:26;;;;;;;;;;;;;;;37.97;15.80;98681.59;5073591;28;19959;-52
2022/09/09 12:10:01;;;;;;;;;;;;;;;38.74;15.79;98662.28;5073712;28;19952;-52
2022/09/09 12:12:31;;;;;;;;;;;;;;;38.96;15.43;98663.06;5055659;28;19917;-52
2022/09/09 12:15:17;;;;;;;;;;;;;;;39.19;15.20;98659.16;5073548;28;19916;-52
2022/09/09 12:17:53;;;;;;;;;;;;;;;38.53;15.60;98660.25;5073459;28;19916;-51
2022/09/09 12:20:18;;;;;;;;;;;;;;;37.61;15.95;98666.13;5073327;28;19917;-53
2022/09/09 12:22:47;;;;;;;;;;;;;;;37.68;15.54;98671.66;5073399;28;19924;-51
2022/09/09 12:25:32;;;;;;;;;;;;;;;37.68;15.33;98656.00;5073225;28;20003;-52
2022/09/09 12:28:10;;;;;;;;;;;;;;;38.19;15.30;98646.06;5054683;28;20278;-51
2022/09/09 12:30:42;;;;;;;;;;;;;;;38.70;15.00;98645.03;5073122;28;19917;-51
2022/09/09 12:33:15;;;;;;;;;;;;;;;38.30;15.17;98648.84;5055272;28;19920;-51
2022/09/09 12:35:43;;;;;;;;;;;;;;;38.14;14.82;98639.00;5073162;28;19969;-50
2022/09/09 12:38:13;;;;;;;;;;;;;;;38.08;15.09;98656.22;5073066;28;20404;-48
2022/09/09 12:40:41;;;;;;;;;;;;;;;38.35;15.38;98640.22;5073060;28;20358;-50
2022/09/09 12:43:21;;;;;;;;;;;;;;;38.20;15.75;98646.84;5072056;28;19923;-49
2022/09/09 12:45:47;;;;;;;;;;;;;;;37.92;15.30;98651.03;5072979;28;19917;-50
2022/09/09 12:48:15;;;;;;;;;;;;;;;37.21;16.11;98645.88;5055485;28;20279;-49
2022/09/09 12:50:51;;;;;;;;;;;;;;;36.81;15.83;98645.56;5072785;28;20041;-49
2022/09/09 12:53:20;;;;;;;;;;;;;;;36.55;16.05;98644.50;5072828;28;19924;-49
2022/09/09 12:55:54;;;;;;;;;;;;;;;36.74;16.13;98638.03;5072792;28;19928;-48
2022/09/09 12:58:20;;;;;;;;;;;;;;;37.02;15.87;98636.72;5072641;28;19931;-50
2022/09/09 13:00:51;;;;;;;;;;;;;;;37.13;15.60;98629.41;5054701;28;19916;-49
2022/09/09 13:03:20;;;;;;;;;;;;;;;36.25;16.50;98633.63;5072625;28;19916;-49